Time;durP1;ratioP1;P1;durP2;ratioP2;P2;SDS_P1;SDS_P2;PMS_P1;PMS_P2;Temp;Humidity;BMP_temperature;BMP_pressure;BME280_temperature;BME280_humidity;BME280_pressure;Samples;Min_cycle;Max_cycle;Signal;HPM_P1;HPM_P2
2021/07/16 00:01:23;;;;;;;11.00;7.73;;;15.20;99.90;;;;;;5094124;28;21031;-66
2021/07/16 00:03:49;;;;;;;8.47;7.57;;;15.20;99.90;;;;;;5094055;28;20501;-66
2021/07/16 00:06:17;;;;;;;16.97;7.80;;;15.10;99.90;;;;;;5093272;28;20446;-66
2021/07/16 00:08:45;;;;;;;12.07;8.53;;;15.00;99.90;;;;;;5093745;28;20445;-66
2021/07/16 00:11:12;;;;;;;10.80;8.53;;;15.00;99.90;;;;;;5093088;28;20456;-66
2021/07/16 00:13:39;;;;;;;11.60;8.57;;;15.00;99.90;;;;;;5092799;28;20466;-66
2021/07/16 00:16:06;;;;;;;14.43;11.10;;;14.90;99.90;;;;;;5093152;28;20446;-66
2021/07/16 00:18:34;;;;;;;14.60;9.90;;;14.90;99.90;;;;;;5092729;28;20866;-66
2021/07/16 00:21:02;;;;;;;11.70;9.83;;;15.00;99.90;;;;;;5092038;28;20808;-65
2021/07/16 00:23:29;;;;;;;11.53;8.90;;;15.00;99.90;;;;;;5092464;28;20968;-66
2021/07/16 00:25:58;;;;;;;10.87;8.90;;;15.00;99.90;;;;;;5092598;28;20443;-66
2021/07/16 00:28:25;;;;;;;9.50;8.47;;;15.00;99.90;;;;;;5092394;28;20443;-67
2021/07/16 00:30:52;;;;;;;10.43;8.53;;;15.00;99.90;;;;;;5091862;28;20446;-67
2021/07/16 00:33:19;;;;;;;15.47;11.17;;;15.10;99.90;;;;;;5091976;28;20967;-67
2021/07/16 00:35:45;;;;;;;12.00;10.63;;;15.30;99.90;;;;;;5092533;28;20951;-67
2021/07/16 00:38:13;;;;;;;15.43;11.10;;;15.40;99.90;;;;;;5092204;28;20489;-66
2021/07/16 00:40:40;;;;;;;17.70;11.90;;;15.30;99.90;;;;;;5091783;28;20836;-67
2021/07/16 00:43:08;;;;;;;14.50;10.93;;;15.30;99.90;;;;;;5091987;28;20466;-66
2021/07/16 00:45:35;;;;;;;14.93;11.53;;;15.30;99.90;;;;;;5092200;28;20442;-66
2021/07/16 00:48:02;;;;;;;12.77;10.60;;;15.30;99.90;;;;;;5091994;28;20450;-67
2021/07/16 00:50:32;;;;;;;9.77;8.80;;;15.40;99.90;;;;;;5091829;28;20529;-66
2021/07/16 00:52:59;;;;;;;16.17;10.50;;;15.50;99.90;;;;;;5091427;28;20556;-66
2021/07/16 00:55:27;;;;;;;12.40;9.93;;;15.40;99.90;;;;;;5091705;28;20961;-66
2021/07/16 00:57:55;;;;;;;12.97;9.50;;;15.40;99.90;;;;;;5091610;28;20533;-66
2021/07/16 01:00:23;;;;;;;10.73;8.67;;;15.50;99.90;;;;;;5091216;28;20490;-66
2021/07/16 01:02:51;;;;;;;11.97;10.00;;;15.40;99.90;;;;;;5091467;28;20469;-66
2021/07/16 01:05:19;;;;;;;12.20;10.33;;;15.40;99.90;;;;;;5091654;28;20451;-66
2021/07/16 01:07:47;;;;;;;17.30;11.43;;;15.40;99.90;;;;;;5091199;28;20438;-66
2021/07/16 01:10:15;;;;;;;12.30;9.60;;;15.50;99.90;;;;;;5091235;28;20928;-66
2021/07/16 01:12:43;;;;;;;12.50;10.67;;;15.50;99.90;;;;;;5091353;28;20470;-66
2021/07/16 01:15:15;;;;;;;12.77;9.30;;;15.50;99.90;;;;;;5091458;28;20576;-66
2021/07/16 01:17:44;;;;;;;13.30;8.90;;;15.50;99.90;;;;;;5091226;28;20457;-66
2021/07/16 01:20:13;;;;;;;10.10;7.87;;;15.50;99.90;;;;;;5091021;28;20504;-66
2021/07/16 01:22:43;;;;;;;12.37;9.10;;;15.40;99.90;;;;;;5091377;28;20477;-67
2021/07/16 01:25:14;;;;;;;10.33;8.40;;;15.40;99.90;;;;;;5091274;28;20549;-66
2021/07/16 01:27:42;;;;;;;15.77;10.00;;;15.30;99.90;;;;;;5090766;28;20824;-66
2021/07/16 01:30:12;;;;;;;14.30;10.17;;;15.20;99.90;;;;;;5090708;28;20947;-66
2021/07/16 01:32:40;;;;;;;17.90;11.20;;;15.30;99.90;;;;;;5090746;28;20515;-66
2021/07/16 01:35:08;;;;;;;18.07;11.33;;;15.30;99.90;;;;;;5091151;28;20485;-66
2021/07/16 01:37:35;;;;;;;14.07;8.10;;;15.40;99.90;;;;;;5091444;28;20446;-66
2021/07/16 01:40:02;;;;;;;9.67;6.97;;;15.30;99.90;;;;;;5090247;28;21044;-67
2021/07/16 01:42:36;;;;;;;13.90;8.20;;;15.30;99.90;;;;;;5090949;28;20450;-67
2021/07/16 01:45:05;;;;;;;10.33;7.67;;;15.20;99.90;;;;;;5090870;28;20450;-66
2021/07/16 01:47:32;;;;;;;13.23;9.17;;;15.20;99.90;;;;;;5090990;28;20907;-66
2021/07/16 01:49:59;;;;;;;12.30;9.37;;;15.20;99.90;;;;;;5090703;28;20442;-66
2021/07/16 01:52:26;;;;;;;13.60;8.53;;;15.10;99.90;;;;;;5090683;28;20456;-66
2021/07/16 01:54:53;;;;;;;11.57;8.63;;;15.00;99.90;;;;;;5090733;28;20453;-66
2021/07/16 01:57:20;;;;;;;15.10;9.00;;;15.00;99.90;;;;;;5091049;28;20452;-66
2021/07/16 01:59:48;;;;;;;12.10;8.23;;;15.00;99.90;;;;;;5090497;28;21040;-65
2021/07/16 02:02:15;;;;;;;11.50;8.00;;;15.00;99.90;;;;;;5091047;28;20446;-65
2021/07/16 02:04:43;;;;;;;11.80;7.47;;;15.00;99.90;;;;;;5090666;28;20450;-65
2021/07/16 02:07:09;;;;;;;10.57;8.90;;;14.90;99.90;;;;;;5090815;28;20469;-67
2021/07/16 02:09:36;;;;;;;10.90;7.80;;;15.00;99.90;;;;;;5090378;28;20434;-66
2021/07/16 02:12:04;;;;;;;10.33;7.93;;;15.00;99.90;;;;;;5090586;28;20870;-66
2021/07/16 02:14:31;;;;;;;9.03;7.53;;;15.00;99.90;;;;;;5090307;28;20544;-66
2021/07/16 02:17:00;;;;;;;9.87;8.40;;;14.90;99.90;;;;;;5090539;28;20454;-67
2021/07/16 02:19:28;;;;;;;10.93;9.17;;;14.90;99.90;;;;;;5089195;28;20516;-67
2021/07/16 02:21:54;;;;;;;14.40;10.10;;;15.00;99.90;;;;;;5090701;28;20446;-66
2021/07/16 02:24:21;;;;;;;10.10;9.07;;;15.00;99.90;;;;;;5090433;28;20466;-67
2021/07/16 02:26:48;;;;;;;14.43;9.57;;;15.00;99.90;;;;;;5090366;28;20448;-69
2021/07/16 02:29:15;;;;;;;11.47;8.80;;;15.10;99.90;;;;;;5089976;28;20517;-66
2021/07/16 02:31:42;;;;;;;12.43;10.33;;;15.10;99.90;;;;;;5090200;28;20533;-66
2021/07/16 02:34:10;;;;;;;9.67;8.67;;;15.10;99.90;;;;;;5090523;28;20469;-65
2021/07/16 02:36:37;;;;;;;13.90;10.00;;;15.10;99.90;;;;;;5090108;28;20454;-66
2021/07/16 02:39:05;;;;;;;12.87;9.80;;;15.10;99.90;;;;;;5090043;28;20478;-66
2021/07/16 02:41:31;;;;;;;12.47;10.67;;;15.20;99.90;;;;;;5090016;28;20442;-66
2021/07/16 02:43:58;;;;;;;11.27;9.90;;;15.10;99.90;;;;;;5089933;28;20454;-66
2021/07/16 02:46:25;;;;;;;12.50;10.60;;;15.10;99.90;;;;;;5089902;28;20523;-66
2021/07/16 02:48:52;;;;;;;13.70;9.37;;;15.20;99.90;;;;;;5090194;28;20446;-66
2021/07/16 02:51:20;;;;;;;11.97;8.93;;;15.20;99.90;;;;;;5089917;28;20437;-67
2021/07/16 02:53:47;;;;;;;11.33;9.57;;;15.20;99.90;;;;;;5090072;28;20474;-66
2021/07/16 02:56:14;;;;;;;11.30;10.00;;;15.20;99.90;;;;;;5089872;28;20446;-67
2021/07/16 02:58:41;;;;;;;15.53;8.93;;;15.30;99.90;;;;;;5089759;28;20441;-66
2021/07/16 03:01:07;;;;;;;10.10;8.50;;;15.20;99.90;;;;;;5089417;28;20517;-66
2021/07/16 03:03:34;;;;;;;9.23;7.90;;;15.20;99.90;;;;;;5089861;28;20468;-67
2021/07/16 03:06:01;;;;;;;14.10;9.70;;;15.10;99.90;;;;;;5089931;28;20940;-67
2021/07/16 03:08:29;;;;;;;13.80;9.60;;;15.10;99.90;;;;;;5089871;28;20533;-66
2021/07/16 03:10:56;;;;;;;10.20;8.77;;;15.20;99.90;;;;;;5089486;28;20863;-66
2021/07/16 03:13:23;;;;;;;10.80;9.07;;;15.20;99.90;;;;;;5089404;28;20571;-66
2021/07/16 03:15:50;;;;;;;15.07;10.03;;;15.20;99.90;;;;;;5089751;28;20450;-66
2021/07/16 03:18:20;;;;;;;12.57;11.23;;;15.10;99.90;;;;;;5089832;28;20458;-67
2021/07/16 03:20:48;;;;;;;12.43;10.23;;;15.10;99.90;;;;;;5089460;28;20566;-66
2021/07/16 03:23:16;;;;;;;14.60;9.70;;;15.10;99.90;;;;;;5089598;28;21194;-66
2021/07/16 03:25:44;;;;;;;16.77;12.00;;;15.10;99.90;;;;;;5089744;28;20489;-67
2021/07/16 03:28:13;;;;;;;12.10;10.80;;;15.10;99.90;;;;;;5089771;28;20561;-66
2021/07/16 03:30:41;;;;;;;12.17;9.67;;;15.10;99.90;;;;;;5091860;28;21099;-65
2021/07/16 03:33:08;;;;;;;14.60;11.40;;;15.10;99.90;;;;;;5093362;28;20984;-67
2021/07/16 03:35:35;;;;;;;11.97;9.00;;;15.10;99.90;;;;;;5093865;28;20493;-66
2021/07/16 03:38:02;;;;;;;10.90;9.50;;;15.20;99.90;;;;;;5093583;28;20966;-67
2021/07/16 03:40:29;;;;;;;13.77;10.83;;;15.30;99.90;;;;;;5093000;28;20474;-66
2021/07/16 03:42:58;;;;;;;13.20;10.87;;;15.40;99.90;;;;;;5093218;28;20553;-67
2021/07/16 03:45:26;;;;;;;14.17;9.37;;;15.40;99.90;;;;;;5093344;28;20536;-67
2021/07/16 03:47:53;;;;;;;13.07;10.53;;;15.40;99.90;;;;;;5093533;28;20817;-67
2021/07/16 03:50:21;;;;;;;15.27;10.43;;;15.40;99.90;;;;;;5093063;28;20442;-66
2021/07/16 03:52:49;;;;;;;15.17;10.83;;;15.50;99.90;;;;;;5093177;28;21007;-66
2021/07/16 03:55:16;;;;;;;13.63;11.03;;;15.50;99.90;;;;;;5093171;28;20827;-67
2021/07/16 03:57:44;;;;;;;14.00;10.53;;;15.50;99.90;;;;;;5093523;28;20532;-67
2021/07/16 04:00:14;;;;;;;16.20;10.30;;;15.50;99.90;;;;;;5092909;28;20484;-66
2021/07/16 04:02:42;;;;;;;14.60;11.00;;;15.50;99.90;;;;;;5093216;28;20466;-67
2021/07/16 04:05:10;;;;;;;11.30;9.87;;;15.50;99.90;;;;;;5093103;28;20445;-67
2021/07/16 04:07:45;;;;;;;14.03;10.43;;;15.50;99.90;;;;;;5093037;28;20520;-66
2021/07/16 04:10:12;;;;;;;14.43;11.57;;;15.40;99.90;;;;;;5093045;28;20444;-66
2021/07/16 04:12:39;;;;;;;13.50;10.40;;;15.50;99.90;;;;;;5093015;28;20553;-67
2021/07/16 04:15:08;;;;;;;12.57;10.00;;;15.50;99.90;;;;;;5092968;28;20545;-66
2021/07/16 04:17:36;;;;;;;8.63;7.80;;;15.60;99.90;;;;;;5092956;28;20540;-66
2021/07/16 04:20:04;;;;;;;14.17;7.70;;;15.70;99.90;;;;;;5092289;28;20486;-66
2021/07/16 04:22:31;;;;;;;10.63;8.93;;;15.70;99.90;;;;;;5092903;28;20450;-64
2021/07/16 04:24:57;;;;;;;12.07;9.43;;;15.70;99.90;;;;;;5092579;28;20454;-65
2021/07/16 04:27:24;;;;;;;12.23;9.27;;;15.70;99.90;;;;;;5092225;28;20478;-64
2021/07/16 04:29:51;;;;;;;12.37;9.30;;;15.60;99.90;;;;;;5092251;28;20462;-64
2021/07/16 04:32:18;;;;;;;9.80;8.80;;;15.60;99.90;;;;;;5092345;28;20470;-65
2021/07/16 04:34:46;;;;;;;12.97;9.23;;;15.60;99.90;;;;;;5092305;28;20450;-65
2021/07/16 04:37:13;;;;;;;13.00;10.57;;;15.70;99.90;;;;;;5092533;28;20453;-65
2021/07/16 04:39:40;;;;;;;16.30;10.70;;;15.70;99.90;;;;;;5091707;28;20576;-74
2021/07/16 04:42:07;;;;;;;13.53;11.40;;;15.70;99.90;;;;;;5091290;28;20952;-65
2021/07/16 04:44:35;;;;;;;16.10;12.37;;;15.90;99.90;;;;;;5091809;28;20465;-65
2021/07/16 04:47:02;;;;;;;17.50;11.33;;;15.90;99.90;;;;;;5092327;28;20443;-67
2021/07/16 04:49:29;;;;;;;16.67;13.83;;;15.80;99.90;;;;;;5091643;28;20536;-65
2021/07/16 04:52:00;;;;;;;15.30;12.20;;;15.70;99.90;;;;;;5092333;28;20940;-67
2021/07/16 04:54:26;;;;;;;15.13;12.20;;;15.70;99.90;;;;;;5092117;28;20454;-67
2021/07/16 04:56:54;;;;;;;17.53;13.87;;;15.70;99.90;;;;;;5091683;28;20454;-65
2021/07/16 04:59:21;;;;;;;18.73;14.40;;;15.70;99.90;;;;;;5089518;28;20451;-65
2021/07/16 05:01:48;;;;;;;22.17;15.87;;;15.80;99.90;;;;;;5079133;28;20968;-66
2021/07/16 05:04:16;;;;;;;20.27;14.90;;;15.90;99.90;;;;;;5083817;28;20458;-66
2021/07/16 05:06:43;;;;;;;18.60;14.67;;;16.00;99.90;;;;;;5090576;28;20442;-65
2021/07/16 05:09:11;;;;;;;18.50;15.20;;;16.10;99.90;;;;;;5091323;28;20444;-66
2021/07/16 05:11:38;;;;;;;18.50;15.83;;;16.20;99.90;;;;;;5091501;28;20444;-66
2021/07/16 05:14:06;;;;;;;20.40;14.40;;;16.30;99.90;;;;;;5090689;28;20982;-66
2021/07/16 05:16:33;;;;;;;20.40;14.93;;;16.30;99.90;;;;;;5089685;28;20446;-66
2021/07/16 05:18:59;;;;;;;19.30;14.50;;;16.50;99.90;;;;;;5091123;28;20449;-65
2021/07/16 05:21:26;;;;;;;18.43;13.50;;;16.60;99.90;;;;;;5091336;28;20492;-66
2021/07/16 05:23:53;;;;;;;15.57;12.93;;;16.70;99.90;;;;;;5091019;28;20469;-65
2021/07/16 05:26:22;;;;;;;13.30;11.93;;;16.70;99.90;;;;;;5091156;28;20956;-65
2021/07/16 05:28:49;;;;;;;15.03;12.40;;;16.70;99.90;;;;;;5090748;28;21051;-65
2021/07/16 05:31:16;;;;;;;14.13;11.83;;;16.60;99.90;;;;;;5091035;28;20481;-64
2021/07/16 05:33:43;;;;;;;12.87;11.43;;;16.70;99.90;;;;;;5090902;28;20979;-66
2021/07/16 05:36:11;;;;;;;15.53;11.70;;;16.90;99.90;;;;;;5090944;28;20832;-65
2021/07/16 05:38:38;;;;;;;13.90;11.47;;;17.00;99.90;;;;;;5090796;28;20797;-66
2021/07/16 05:41:05;;;;;;;14.57;12.43;;;17.20;99.90;;;;;;5090548;28;20474;-66
2021/07/16 05:43:34;;;;;;;14.03;12.33;;;17.30;99.90;;;;;;5090651;28;20553;-66
2021/07/16 05:46:02;;;;;;;15.67;13.37;;;17.70;99.90;;;;;;5090658;28;20536;-65
2021/07/16 05:48:31;;;;;;;16.10;14.20;;;18.10;99.90;;;;;;5091021;28;20496;-65
2021/07/16 05:50:59;;;;;;;19.00;13.67;;;18.50;99.90;;;;;;5090529;28;21000;-65
2021/07/16 05:53:25;;;;;;;17.20;13.47;;;18.40;99.90;;;;;;5090495;28;20545;-65
2021/07/16 05:55:52;;;;;;;16.10;13.90;;;18.30;99.90;;;;;;5090605;28;20456;-65
2021/07/16 05:58:19;;;;;;;22.73;15.77;;;18.10;99.90;;;;;;5090695;28;20447;-65
2021/07/16 06:00:47;;;;;;;43.00;16.77;;;17.90;99.90;;;;;;5089284;28;20485;-65
2021/07/16 06:03:14;;;;;;;16.47;14.87;;;17.80;99.90;;;;;;5084973;28;20490;-65
2021/07/16 06:05:42;;;;;;;16.73;15.17;;;17.80;99.90;;;;;;5086062;28;20438;-65
2021/07/16 06:08:09;;;;;;;15.30;13.53;;;18.00;99.90;;;;;;5090381;28;20446;-65
2021/07/16 06:10:36;;;;;;;14.40;12.90;;;18.00;99.90;;;;;;5086310;28;20473;-65
2021/07/16 06:13:03;;;;;;;15.80;14.00;;;18.10;99.90;;;;;;5088393;28;20476;-65
2021/07/16 06:15:30;;;;;;;15.10;13.43;;;18.20;99.90;;;;;;5089441;28;20438;-66
2021/07/16 06:17:58;;;;;;;14.63;13.13;;;18.30;99.90;;;;;;5073317;28;20473;-66
2021/07/16 06:20:25;;;;;;;16.27;14.53;;;18.30;99.90;;;;;;5086895;28;20474;-65
2021/07/16 06:22:53;;;;;;;15.17;13.63;;;18.40;99.90;;;;;;5083475;28;20551;-66
2021/07/16 06:25:20;;;;;;;15.73;13.73;;;18.60;99.90;;;;;;5077112;28;20439;-65
2021/07/16 06:27:47;;;;;;;12.90;11.70;;;18.80;99.90;;;;;;5079512;28;20533;-64
2021/07/16 06:30:16;;;;;;;14.40;13.00;;;19.00;99.90;;;;;;5078867;28;20435;-65
2021/07/16 06:32:43;;;;;;;13.77;11.57;;;19.10;99.90;;;;;;5079342;28;20864;-65
2021/07/16 06:35:12;;;;;;;14.33;12.93;;;19.10;99.90;;;;;;5081273;28;20466;-65
2021/07/16 06:37:39;;;;;;;13.53;12.23;;;19.20;99.90;;;;;;5078626;28;20526;-65
2021/07/16 06:40:08;;;;;;;12.87;11.57;;;19.30;99.90;;;;;;5070562;28;20949;-64
2021/07/16 06:42:35;;;;;;;13.13;11.83;;;19.40;99.90;;;;;;5068931;28;20473;-65
2021/07/16 06:45:02;;;;;;;13.50;12.10;;;19.40;99.90;;;;;;5068911;28;20450;-65
2021/07/16 06:47:28;;;;;;;13.37;12.00;;;19.30;99.90;;;;;;5068804;28;20447;-65
2021/07/16 06:49:55;;;;;;;14.37;12.83;;;19.40;99.90;;;;;;5069131;28;20972;-65
2021/07/16 06:52:23;;;;;;;13.80;11.30;;;19.50;99.90;;;;;;5069550;28;20864;-66
2021/07/16 06:54:50;;;;;;;12.63;11.47;;;19.60;99.90;;;;;;5069450;28;20454;-65
2021/07/16 06:57:17;;;;;;;13.00;11.73;;;19.50;99.90;;;;;;5069667;28;20447;-65
2021/07/16 06:59:44;;;;;;;13.17;10.70;;;19.20;99.90;;;;;;5077282;28;20555;-65
2021/07/16 07:02:11;;;;;;;11.73;10.50;;;19.00;99.90;;;;;;5088434;28;20485;-65
2021/07/16 07:04:37;;;;;;;11.20;10.17;;;19.00;99.90;;;;;;5090760;28;20847;-65
2021/07/16 07:07:05;;;;;;;11.77;10.77;;;19.10;99.90;;;;;;5093550;28;20469;-66
2021/07/16 07:09:33;;;;;;;11.40;10.30;;;19.50;99.90;;;;;;5093096;28;20511;-64
2021/07/16 07:12:00;;;;;;;13.17;11.10;;;19.80;99.90;;;;;;5093642;28;20450;-66
2021/07/16 07:14:27;;;;;;;12.47;11.20;;;20.10;99.90;;;;;;5093741;28;20473;-66
2021/07/16 07:16:54;;;;;;;13.67;12.47;;;20.20;99.90;;;;;;5093592;28;21176;-65
2021/07/16 07:19:21;;;;;;;14.73;13.30;;;20.20;99.90;;;;;;5093311;28;20449;-65
2021/07/16 07:21:47;;;;;;;15.50;13.00;;;20.20;99.90;;;;;;5093447;28;20565;-66
2021/07/16 07:24:14;;;;;;;14.73;12.90;;;20.10;99.90;;;;;;5093273;28;20482;-66
2021/07/16 07:26:42;;;;;;;15.00;13.00;;;20.10;99.90;;;;;;5093755;28;20449;-65
2021/07/16 07:29:09;;;;;;;12.90;11.33;;;20.10;99.90;;;;;;5093306;28;20465;-65
2021/07/16 07:31:36;;;;;;;11.33;10.23;;;20.20;99.90;;;;;;5093335;28;20591;-66
2021/07/16 07:34:03;;;;;;;11.37;10.37;;;20.60;99.90;;;;;;5093257;28;20553;-66
2021/07/16 07:36:30;;;;;;;11.33;10.33;;;20.90;99.90;;;;;;5093625;28;20452;-66
2021/07/16 07:38:57;;;;;;;12.63;11.53;;;21.10;99.90;;;;;;5093004;28;20442;-65
2021/07/16 07:41:26;;;;;;;12.17;10.93;;;20.90;99.90;;;;;;5093199;28;20592;-65
2021/07/16 07:43:56;;;;;;;10.37;9.47;;;20.70;99.90;;;;;;5092951;28;20474;-65
2021/07/16 07:46:23;;;;;;;12.40;11.30;;;20.50;99.90;;;;;;5093289;28;20541;-65
2021/07/16 07:48:50;;;;;;;11.30;10.30;;;20.40;99.90;;;;;;5092959;28;21045;-64
2021/07/16 07:51:17;;;;;;;10.90;9.90;;;20.30;99.90;;;;;;5088434;28;20436;-65
2021/07/16 07:53:44;;;;;;;11.47;10.37;;;20.20;99.90;;;;;;5079340;28;20471;-65
2021/07/16 07:56:11;;;;;;;10.80;9.80;;;20.10;99.90;;;;;;5072971;28;20514;-65
2021/07/16 07:58:37;;;;;;;10.90;9.90;;;20.00;99.90;;;;;;5072976;28;20451;-65
2021/07/16 08:01:06;;;;;;;11.30;10.30;;;20.10;99.90;;;;;;5072119;28;20454;-65
2021/07/16 08:03:33;;;;;;;10.00;9.20;;;20.60;99.90;;;;;;5081048;28;20303;-65
2021/07/16 08:06:00;;;;;;;10.07;9.07;;;21.20;99.90;;;;;;5092709;28;20522;-65
2021/07/16 08:08:27;;;;;;;8.20;7.50;;;21.40;99.90;;;;;;5092889;28;20880;-65
2021/07/16 08:10:54;;;;;;;8.00;7.30;;;21.40;99.90;;;;;;5092496;28;20470;-66
2021/07/16 08:13:21;;;;;;;8.07;7.33;;;21.20;99.90;;;;;;5092803;28;20886;-65
2021/07/16 08:15:47;;;;;;;8.40;7.60;;;21.20;99.90;;;;;;5088490;28;20450;-66
2021/07/16 08:18:16;;;;;;;8.70;7.90;;;21.10;99.90;;;;;;5086801;28;20448;-67
2021/07/16 08:20:43;;;;;;;8.00;7.20;;;20.90;99.90;;;;;;5083326;28;20577;-66
2021/07/16 08:23:10;;;;;;;7.87;7.07;;;20.80;99.90;;;;;;5085928;28;20462;-64
2021/07/16 08:25:37;;;;;;;7.93;7.13;;;21.00;99.90;;;;;;5091303;28;20442;-65
2021/07/16 08:28:05;;;;;;;9.27;8.30;;;21.40;99.90;;;;;;5092221;28;20533;-64
2021/07/16 08:30:32;;;;;;;8.50;7.70;;;21.60;99.90;;;;;;5092146;28;20442;-64
2021/07/16 08:32:59;;;;;;;8.20;7.40;;;21.80;99.90;;;;;;5092314;28;20467;-64
2021/07/16 08:35:27;;;;;;;10.20;8.10;;;21.90;99.90;;;;;;5091400;28;20533;-64
2021/07/16 08:37:54;;;;;;;9.57;7.70;;;21.70;99.90;;;;;;5092077;28;20446;-65
2021/07/16 08:40:21;;;;;;;8.10;7.50;;;21.70;99.90;;;;;;5090869;28;20591;-66
2021/07/16 08:42:50;;;;;;;7.97;7.27;;;21.70;99.90;;;;;;5081475;28;20536;-66
2021/07/16 08:45:17;;;;;;;9.07;8.27;;;21.70;99.90;;;;;;5080698;28;20446;-66
2021/07/16 08:47:44;;;;;;;8.10;7.40;;;21.90;99.90;;;;;;5080709;28;20529;-66
2021/07/16 08:50:13;;;;;;;7.70;7.00;;;22.00;99.90;;;;;;5080779;28;20446;-66
2021/07/16 08:52:45;;;;;;;8.43;7.73;;;22.30;99.90;;;;;;5082133;28;20458;-66
2021/07/16 08:55:14;;;;;;;8.10;7.40;;;22.60;99.90;;;;;;5081548;28;20443;-65
2021/07/16 08:57:42;;;;;;;8.10;7.30;;;22.50;99.90;;;;;;5079974;28;20513;-65
2021/07/16 09:00:13;;;;;;;9.83;8.93;;;22.50;99.90;;;;;;5085462;28;20787;-65
2021/07/16 09:02:51;;;;;;;9.23;8.43;;;22.30;99.90;;;;;;5091303;28;21004;-65
2021/07/16 09:05:18;;;;;;;9.83;8.83;;;22.20;99.90;;;;;;5091592;28;20940;-65
2021/07/16 09:07:49;;;;;;;8.50;7.70;;;22.10;99.90;;;;;;5091675;28;20442;-65
2021/07/16 09:10:21;;;;;;;10.10;8.30;;;22.20;99.90;;;;;;5091341;28;20520;-65
2021/07/16 09:12:57;;;;;;;8.80;7.90;;;22.20;99.90;;;;;;5091667;28;20499;-65
2021/07/16 09:15:24;;;;;;;8.57;7.83;;;22.40;99.90;;;;;;5091330;28;20446;-65
2021/07/16 09:18:08;;;;;;;8.13;7.07;;;22.50;99.90;;;;;;5091392;28;20450;-65
2021/07/16 09:20:34;;;;;;;8.00;7.30;;;22.60;99.90;;;;;;5091130;28;20537;-65
2021/07/16 09:23:13;;;;;;;8.27;7.47;;;22.60;99.90;;;;;;5091171;28;20904;-65
2021/07/16 09:25:40;;;;;;;8.13;7.33;;;22.80;99.90;;;;;;5091347;28;20437;-65
2021/07/16 09:28:07;;;;;;;6.60;6.00;;;22.50;99.90;;;;;;5091003;28;20446;-65
2021/07/16 09:30:35;;;;;;;7.73;7.03;;;22.30;99.90;;;;;;5090394;28;20537;-64
2021/07/16 09:33:05;;;;;;;7.20;6.50;;;22.00;99.90;;;;;;5087790;28;20493;-65
2021/07/16 09:35:37;;;;;;;7.10;6.50;;;21.80;99.90;;;;;;5088633;28;20438;-65
2021/07/16 09:38:05;;;;;;;7.60;6.60;;;21.90;99.90;;;;;;5090397;28;20529;-65
2021/07/16 09:40:37;;;;;;;8.03;7.33;;;22.10;99.90;;;;;;5090811;28;20474;-65
2021/07/16 09:43:08;;;;;;;6.17;5.57;;;22.50;99.90;;;;;;5090599;28;20527;-65
2021/07/16 09:45:35;;;;;;;6.73;5.73;;;22.80;99.90;;;;;;5090794;28;20439;-65
2021/07/16 09:48:18;;;;;;;6.23;5.63;;;23.00;99.90;;;;;;5089567;28;20457;-65
2021/07/16 09:50:46;;;;;;;5.67;5.17;;;22.70;99.90;;;;;;5089491;28;20442;-65
2021/07/16 09:53:14;;;;;;;6.57;5.90;;;22.50;99.90;;;;;;5090403;28;20469;-65
2021/07/16 09:55:43;;;;;;;6.20;5.60;;;22.40;99.90;;;;;;5090392;28;20448;-65
2021/07/16 09:58:28;;;;;;;5.03;4.47;;;22.60;99.90;;;;;;5090352;28;20525;-65
2021/07/16 10:00:56;;;;;;;5.50;4.90;;;23.00;99.90;;;;;;5084690;28;20450;-66
2021/07/16 10:03:23;;;;;;;4.80;4.40;;;23.60;99.90;;;;;;5080208;28;20463;-66
2021/07/16 10:05:51;;;;;;;5.33;4.90;;;24.50;99.90;;;;;;5083576;28;20541;-66
2021/07/16 10:08:19;;;;;;;6.23;4.13;;;25.10;99.90;;;;;;5090042;28;20529;-66
2021/07/16 10:10:49;;;;;;;4.93;4.53;;;25.50;99.90;;;;;;5090005;28;20446;-65
2021/07/16 10:13:17;;;;;;;6.13;4.83;;;25.90;99.90;;;;;;5084542;28;20501;-65
2021/07/16 10:15:45;;;;;;;5.30;4.10;;;26.20;99.90;;;;;;5084515;28;20537;-66
2021/07/16 10:18:12;;;;;;;4.00;3.60;;;26.30;99.90;;;;;;5090112;28;20476;-65
2021/07/16 10:20:39;;;;;;;7.03;4.03;;;26.80;99.90;;;;;;5089788;28;20446;-66
2021/07/16 10:23:08;;;;;;;3.60;3.20;;;27.20;99.90;;;;;;5089618;28;20478;-65
2021/07/16 10:25:35;;;;;;;4.30;3.80;;;27.10;99.90;;;;;;5086558;28;20481;-65
2021/07/16 10:28:04;;;;;;;3.60;2.90;;;26.10;99.90;;;;;;5087416;28;20496;-65
2021/07/16 10:30:38;;;;;;;3.60;3.03;;;25.40;99.90;;;;;;5088975;28;20445;-65
2021/07/16 10:33:05;;;;;;;5.47;3.17;;;25.10;99.90;;;;;;5086863;28;20451;-66
2021/07/16 10:35:37;;;;;;;4.27;3.60;;;25.20;99.90;;;;;;5081515;28;20526;-66
2021/07/16 10:38:25;;;;;;;4.83;2.90;;;25.20;99.90;;;;;;5080126;28;20449;-66
2021/07/16 10:40:52;;;;;;;3.93;3.07;;;25.00;99.90;;;;;;5088675;28;21062;-66
2021/07/16 10:43:41;;;;;;;5.33;3.07;;;25.10;99.90;;;;;;5089653;28;20478;-66
2021/07/16 10:46:31;;;;;;;4.07;2.80;;;25.10;99.90;;;;;;5089678;28;20477;-65
2021/07/16 10:48:59;;;;;;;4.23;3.00;;;24.40;99.90;;;;;;5084913;28;20454;-64
2021/07/16 10:51:27;;;;;;;3.40;3.00;;;23.80;99.90;;;;;;5089519;28;20440;-65
2021/07/16 10:53:56;;;;;;;3.27;2.83;;;23.60;99.90;;;;;;5089690;28;20827;-66
2021/07/16 10:56:40;;;;;;;3.90;2.80;;;23.90;99.90;;;;;;5089476;28;20986;-66
2021/07/16 10:59:09;;;;;;;4.40;2.77;;;24.50;99.90;;;;;;5087384;28;20450;-65
2021/07/16 11:01:38;;;;;;;3.90;2.43;;;24.40;99.90;;;;;;5089191;28;20474;-66
2021/07/16 11:04:07;;;;;;;4.10;2.90;;;24.10;99.90;;;;;;5089274;28;20474;-66
2021/07/16 11:06:49;;;;;;;3.50;2.80;;;23.70;99.90;;;;;;5089394;28;20457;-69
2021/07/16 11:09:42;;;;;;;3.67;2.23;;;23.20;99.90;;;;;;5088974;28;20442;-66
2021/07/16 11:12:36;;;;;;;5.03;3.13;;;22.80;99.90;;;;;;5086981;28;20432;-65
2021/07/16 11:15:06;;;;;;;5.33;3.20;;;22.70;99.90;;;;;;5076861;28;20438;-65
2021/07/16 11:17:37;;;;;;;3.87;2.80;;;22.70;99.90;;;;;;5081088;28;20475;-65
2021/07/16 11:20:21;;;;;;;5.53;3.20;;;22.60;99.90;;;;;;5081939;28;20438;-64
2021/07/16 11:22:59;;;;;;;4.47;3.00;;;22.40;99.90;;;;;;5079939;28;20484;-65
2021/07/16 11:25:27;;;;;;;8.30;3.17;;;22.40;99.90;;;;;;5079766;28;20817;-64
2021/07/16 11:27:54;;;;;;;4.60;2.57;;;23.00;99.90;;;;;;5078794;28;20474;-65
2021/07/16 11:30:23;;;;;;;4.47;2.40;;;24.30;99.90;;;;;;5083154;28;20529;-65
2021/07/16 11:32:49;;;;;;;3.27;2.93;;;25.70;99.90;;;;;;5088392;28;20459;-66
2021/07/16 11:35:16;;;;;;;3.73;2.83;;;26.50;99.90;;;;;;5088391;28;20450;-65
2021/07/16 11:37:45;;;;;;;3.97;2.83;;;26.50;99.90;;;;;;5087967;28;20966;-66
2021/07/16 11:40:16;;;;;;;3.10;2.40;;;26.60;99.90;;;;;;5088414;28;20442;-66
2021/07/16 11:42:49;;;;;;;2.90;2.20;;;26.70;99.90;;;;;;5077840;28;20861;-66
2021/07/16 11:45:20;;;;;;;2.90;1.90;;;27.30;99.90;;;;;;5086127;28;20932;-66
2021/07/16 11:47:48;;;;;;;2.90;1.83;;;28.00;99.90;;;;;;5086022;28;20952;-66
2021/07/16 11:50:15;;;;;;;2.83;2.10;;;28.80;99.90;;;;;;5085880;28;20962;-66
2021/07/16 11:52:44;;;;;;;2.90;2.03;;;28.80;99.90;;;;;;5089546;28;21267;-66
2021/07/16 11:55:13;;;;;;;3.60;2.30;;;28.60;99.90;;;;;;5090029;28;20821;-66
2021/07/16 11:57:51;;;;;;;3.47;2.10;;;27.80;99.60;;;;;;5091004;28;20462;-65
2021/07/16 12:00:19;;;;;;;6.63;2.30;;;27.10;99.90;;;;;;5090621;28;20449;-65
2021/07/16 12:02:46;;;;;;;5.37;2.30;;;26.40;99.90;;;;;;5090809;28;20490;-66
2021/07/16 12:05:15;;;;;;;3.60;3.03;;;26.20;99.90;;;;;;5090602;28;20454;-65
2021/07/16 12:07:44;;;;;;;3.33;2.63;;;26.30;99.90;;;;;;5090542;28;20576;-66
2021/07/16 12:10:13;;;;;;;2.83;2.50;;;26.80;99.90;;;;;;5070849;28;20563;-65
2021/07/16 12:12:40;;;;;;;4.40;2.30;;;27.20;99.90;;;;;;5070194;28;20463;-64
2021/07/16 12:15:09;;;;;;;5.50;2.37;;;26.90;99.90;;;;;;5085560;28;20958;-65
2021/07/16 12:17:39;;;;;;;3.90;2.30;;;26.40;99.90;;;;;;5090325;28;20446;-66
2021/07/16 12:20:09;;;;;;;3.50;2.80;;;25.90;99.90;;;;;;5090277;28;20447;-64
2021/07/16 12:22:42;;;;;;;3.63;2.60;;;25.60;99.90;;;;;;5090362;28;20533;-65
2021/07/16 12:25:10;;;;;;;3.30;2.70;;;25.20;99.90;;;;;;5090423;28;20979;-65
2021/07/16 12:27:38;;;;;;;3.20;2.50;;;24.90;99.90;;;;;;5090205;28;20532;-66
2021/07/16 12:30:07;;;;;;;3.07;2.20;;;24.70;99.90;;;;;;5089874;28;20529;-66
2021/07/16 12:32:40;;;;;;;3.40;2.40;;;25.40;99.90;;;;;;5089975;28;20529;-66
2021/07/16 12:35:26;;;;;;;8.53;2.80;;;26.20;99.90;;;;;;5089842;28;20551;-65
2021/07/16 12:38:00;;;;;;;4.13;2.77;;;26.50;99.90;;;;;;5090485;28;20453;-65
2021/07/16 12:40:28;;;;;;;13.67;3.63;;;26.40;99.90;;;;;;5089721;28;20522;-66
2021/07/16 12:43:00;;;;;;;3.93;2.40;;;26.40;99.90;;;;;;5089840;28;20489;-65